createdAt,value
2019-01-10T00:00:52.426Z,29.4
2019-01-10T00:05:53.892Z,29.4
2019-01-10T00:10:55.377Z,29.4
2019-01-10T00:15:56.843Z,29.4
2019-01-10T00:20:58.324Z,29.4
2019-01-10T00:26:01.106Z,29.4
2019-01-10T00:31:03.602Z,29.4
2019-01-10T00:36:13.706Z,29.4
2019-01-10T00:41:15.197Z,29.4
2019-01-10T00:46:16.705Z,29.4
2019-01-10T00:51:18.240Z,29.4
2019-01-10T00:56:19.738Z,29.5
2019-01-10T01:01:21.205Z,29.5
2019-01-10T01:06:22.688Z,29.5
2019-01-10T01:11:24.236Z,29.5
2019-01-10T01:16:26.729Z,29.5
2019-01-10T01:21:32.831Z,29.5
2019-01-10T01:26:34.447Z,29.5
2019-01-10T01:31:36.933Z,29.5
2019-01-10T01:36:38.905Z,29.5
2019-01-10T01:41:40.448Z,29.5
2019-01-10T01:46:44.913Z,29.5
2019-01-10T01:51:46.418Z,29.5
2019-01-10T01:56:48.905Z,29.5
2019-01-10T02:01:58.641Z,29.5
2019-01-10T02:07:03.071Z,29.5
2019-01-10T02:12:04.559Z,29.5
2019-01-10T02:17:06.098Z,29.6
2019-01-10T02:22:07.842Z,29.5
2019-01-10T02:27:09.360Z,29.6
2019-01-10T02:32:12.330Z,29.6
2019-01-10T02:37:13.876Z,29.6
2019-01-10T02:42:15.398Z,29.6
2019-01-10T02:47:16.926Z,29.5
2019-01-10T02:52:18.420Z,29.5
2019-01-10T02:57:19.940Z,29.5
2019-01-10T03:02:21.579Z,29.5
2019-01-10T03:07:23.450Z,29.5
2019-01-10T03:12:25.002Z,29.6
2019-01-10T03:17:26.606Z,29.5
2019-01-10T03:22:28.186Z,29.5
2019-01-10T03:27:29.960Z,29.5
2019-01-10T03:32:31.480Z,29.5
2019-01-10T03:37:33.063Z,29.5
2019-01-10T03:42:34.663Z,29.5
2019-01-10T03:47:36.274Z,29.5
2019-01-10T03:52:37.910Z,29.5
2019-01-10T03:57:39.528Z,29.5
2019-01-10T04:02:41.142Z,29.5
2019-01-10T04:07:42.838Z,29.5
2019-01-10T04:12:44.408Z,29.5
2019-01-10T04:17:46.025Z,29.5
2019-01-10T04:22:50.409Z,29.5
2019-01-10T04:27:52.427Z,29.5
2019-01-10T04:32:53.937Z,29.5
2019-01-10T04:37:55.501Z,29.5
2019-01-10T04:42:57.071Z,29.5
2019-01-10T04:47:58.836Z,29.5
2019-01-10T04:53:03.180Z,29.4
2019-01-10T04:58:04.755Z,29.5
2019-01-10T05:03:06.616Z,29.5
2019-01-10T05:08:08.154Z,29.5
2019-01-10T05:13:13.328Z,29.4
2019-01-10T05:18:15.912Z,29.4
2019-01-10T05:23:18.452Z,29.4
2019-01-10T05:28:20.068Z,29.4
2019-01-10T05:33:21.580Z,29.4
2019-01-10T05:38:23.118Z,29.4
2019-01-10T05:43:25.246Z,29.4
2019-01-10T05:48:26.798Z,29.4
2019-01-10T05:53:28.332Z,29.4
2019-01-10T05:58:29.932Z,29.4
2019-01-10T06:03:31.471Z,29.4
2019-01-10T06:08:33.027Z,29.4
2019-01-10T06:13:34.579Z,29.4
2019-01-10T06:18:37.190Z,29.4
2019-01-10T06:23:38.668Z,29.4
2019-01-10T06:28:40.257Z,29.4
2019-01-10T06:33:41.763Z,29.4
2019-01-10T06:38:43.930Z,29.4
2019-01-10T06:43:45.453Z,29.4
2019-01-10T06:48:47.705Z,29.4
2019-01-10T06:53:49.213Z,29.4
2019-01-10T06:58:51.719Z,29.4
2019-01-10T07:03:53.262Z,29.4
2019-01-10T07:08:54.820Z,29.4
2019-01-10T07:14:06.059Z,29.4
2019-01-10T07:19:08.602Z,29.3
2019-01-10T07:24:10.721Z,29.3
2019-01-10T07:29:12.365Z,29.3
2019-01-10T07:34:13.991Z,29.3
2019-01-10T07:39:15.811Z,29.3
2019-01-10T07:44:17.356Z,29.3
2019-01-10T07:49:18.886Z,29.3
2019-01-10T07:54:20.431Z,29.3
2019-01-10T07:59:22.005Z,29.3
2019-01-10T08:04:24.029Z,29.3
2019-01-10T08:09:25.566Z,29.3
2019-01-10T08:14:27.123Z,29.3
2019-01-10T08:19:29.702Z,29.3
2019-01-10T08:24:39.437Z,29.3
2019-01-10T08:29:40.927Z,29.3
2019-01-10T08:34:42.514Z,29.3
2019-01-10T08:39:44.029Z,29.3
2019-01-10T08:44:54.352Z,29.2
2019-01-10T08:49:56.214Z,29.2
2019-01-10T08:54:57.699Z,29.2
2019-01-10T08:59:59.219Z,29.2
2019-01-10T09:05:01.118Z,29.2
2019-01-10T09:10:24.203Z,29.2
2019-01-10T09:15:34.107Z,29.2
2019-01-10T09:20:36.292Z,29.2
2019-01-10T09:25:40.576Z,29.1
2019-01-10T09:30:45.751Z,29.1
2019-01-10T09:35:51.191Z,29.1
2019-01-10T09:40:52.709Z,29.1
2019-01-10T09:45:56.341Z,29.1
2019-01-10T09:50:57.860Z,29.1
2019-01-10T09:55:59.342Z,29.1
2019-01-10T10:01:00.786Z,29.1
2019-01-10T10:06:07.699Z,29.1
2019-01-10T10:11:12.909Z,29.1
2019-01-10T10:16:14.386Z,29.1
2019-01-10T10:21:15.916Z,29.1
2019-01-10T10:26:20.486Z,29.1
2019-01-10T10:31:21.972Z,29.1
2019-01-10T10:36:26.597Z,29.1
2019-01-10T10:41:28.376Z,29.1
2019-01-10T10:46:29.857Z,29
2019-01-10T10:51:34.347Z,29
2019-01-10T10:56:36.138Z,29
2019-01-10T11:01:37.635Z,29
2019-01-10T11:06:48.633Z,29
2019-01-10T11:11:50.151Z,29
2019-01-10T11:16:51.711Z,29
2019-01-10T11:21:53.266Z,29
2019-01-10T11:26:54.765Z,29
2019-01-10T11:31:57.475Z,28.9
2019-01-10T11:36:59.014Z,28.9
2019-01-10T11:42:00.492Z,28.9
2019-01-10T11:47:02.026Z,28.9
2019-01-10T11:52:03.578Z,28.9
2019-01-10T11:57:08.055Z,28.9
2019-01-10T12:02:09.528Z,28.9
2019-01-10T12:07:11.050Z,28.9
2019-01-10T12:12:12.559Z,28.9
2019-01-10T12:17:14.102Z,28.9
2019-01-10T12:22:18.627Z,28.9
2019-01-10T12:27:21.275Z,28.9
2019-01-10T12:32:25.677Z,28.9
2019-01-10T12:37:27.186Z,28.9
2019-01-10T12:42:28.663Z,28.8
2019-01-10T12:47:30.170Z,28.8
2019-01-10T12:52:35.161Z,28.8
2019-01-10T12:57:39.822Z,28.8
2019-01-10T13:02:41.303Z,28.8
2019-01-10T13:07:43.367Z,28.8
2019-01-10T13:12:45.912Z,28.7
2019-01-10T13:17:47.368Z,28.7
2019-01-10T13:22:48.831Z,28.7
2019-01-10T13:27:50.337Z,28.7
2019-01-10T13:32:51.874Z,28.7
2019-01-10T13:37:53.355Z,28.7
2019-01-10T13:42:55.491Z,28.7
2019-01-10T13:47:56.995Z,28.7
2019-01-10T13:53:07.341Z,28.7
2019-01-10T13:58:08.816Z,28.7
2019-01-10T14:03:11.562Z,28.7
2019-01-10T14:08:13.634Z,28.7
2019-01-10T14:13:23.837Z,28.7
2019-01-10T14:18:26.656Z,28.6
2019-01-10T14:23:28.170Z,28.6
2019-01-10T14:28:29.699Z,28.6
2019-01-10T14:33:34.857Z,28.6
2019-01-10T14:38:36.421Z,28.6
2019-01-10T14:43:37.995Z,28.6
2019-01-10T14:48:39.570Z,28.6
2019-01-10T14:53:42.409Z,28.6
2019-01-10T14:58:43.933Z,28.6
2019-01-10T15:03:46.565Z,28.6
2019-01-10T15:08:48.933Z,28.6
2019-01-10T15:13:50.389Z,28.6
2019-01-10T15:18:51.929Z,28.6
2019-01-10T15:23:53.417Z,28.6
2019-01-10T15:28:54.900Z,28.6
2019-01-10T15:33:56.415Z,28.5
2019-01-10T15:38:57.911Z,28.5
2019-01-10T15:43:59.360Z,28.5
2019-01-10T15:49:00.795Z,28.5
2019-01-10T15:54:05.201Z,28.5
2019-01-10T15:59:06.767Z,28.5
2019-01-10T16:04:08.282Z,28.5
2019-01-10T16:09:13.117Z,28.4
2019-01-10T16:14:15.227Z,28.5
2019-01-10T16:19:16.783Z,28.4
2019-01-10T16:24:18.323Z,28.4
2019-01-10T16:29:20.888Z,28.4
2019-01-10T16:34:24.288Z,28.4
2019-01-10T16:39:25.823Z,28.4
2019-01-10T16:44:30.464Z,28.4
2019-01-10T16:49:36.479Z,28.3
2019-01-10T16:54:37.919Z,27.4
2019-01-10T16:59:39.954Z,27.2
2019-01-10T17:04:41.365Z,27.2
2019-01-10T17:09:43.376Z,27.2
2019-01-10T17:14:45.492Z,27.2
2019-01-10T17:19:46.860Z,27.2
2019-01-10T17:24:48.232Z,27.2
2019-01-10T17:29:49.651Z,27.2
2019-01-10T17:34:51.264Z,27.2
2019-01-10T17:39:53.214Z,27.2
2019-01-10T17:44:55.607Z,27.2
2019-01-10T17:49:58.344Z,27.1
2019-01-10T17:54:59.846Z,29.8
2019-01-10T18:05:07.574Z,36.9
2019-01-10T18:10:09.285Z,39.1
2019-01-10T18:15:20.142Z,41.6
2019-01-10T18:20:23.051Z,43.7
2019-01-10T18:25:25.857Z,45.4
2019-01-10T18:30:27.889Z,46.8
2019-01-10T18:35:29.864Z,48.1
2019-01-10T18:40:34.628Z,49.1
2019-01-10T18:45:40.106Z,50.1
2019-01-10T18:50:48.449Z,50.8
2019-01-10T18:55:50.580Z,51.5
2019-01-10T19:00:57.109Z,52.2
2019-01-10T19:06:00.025Z,52.7
2019-01-10T19:11:01.277Z,53.1
2019-01-10T19:16:06.159Z,53.5
2019-01-10T19:21:09.702Z,53.7
2019-01-10T19:26:10.255Z,54.1
2019-01-10T19:31:11.137Z,54.5
2019-01-10T19:36:12.163Z,54.8
2019-01-10T19:41:12.778Z,55
2019-01-10T19:46:13.405Z,55.4
2019-01-10T19:51:14.263Z,55.8
2019-01-10T19:56:15.279Z,55.8
2019-01-10T20:01:16.430Z,55.6
2019-01-10T20:06:18.195Z,55.5
2019-01-10T20:11:19.386Z,55.4
2019-01-10T20:16:20.181Z,55.4
2019-01-10T20:21:21.115Z,55.3
2019-01-10T20:26:21.836Z,55.2
2019-01-10T20:31:22.494Z,55.2
2019-01-10T20:36:23.145Z,55.1
2019-01-10T20:41:23.800Z,55.1
2019-01-10T20:46:24.520Z,55
2019-01-10T20:51:25.167Z,54.9
2019-01-10T20:56:27.064Z,54.9
2019-01-10T21:01:28.909Z,54.7
2019-01-10T21:06:29.607Z,54.7
2019-01-10T21:11:30.274Z,54.6
2019-01-10T21:16:30.973Z,54.5
2019-01-10T21:21:31.647Z,54.4
2019-01-10T21:26:32.365Z,54.4
2019-01-10T21:31:33.042Z,54.2
2019-01-10T21:36:33.697Z,54.2
2019-01-10T21:41:34.318Z,54.1
2019-01-10T21:46:34.967Z,54
2019-01-10T21:51:35.619Z,53.9
2019-01-10T21:56:36.292Z,53.8
2019-01-10T22:01:36.958Z,53.7
2019-01-10T22:06:37.620Z,53.6
2019-01-10T22:11:38.238Z,53.6
2019-01-10T22:16:38.885Z,53.4
2019-01-10T22:21:39.519Z,53.4
2019-01-10T22:26:40.224Z,53.3
2019-01-10T22:31:42.017Z,53.2
2019-01-10T22:36:46.204Z,53.1
2019-01-10T22:41:46.757Z,53
2019-01-10T22:46:47.338Z,52.9
2019-01-10T22:51:47.924Z,52.8
2019-01-10T22:56:48.517Z,52.7
2019-01-10T23:01:49.159Z,52.6
2019-01-10T23:06:49.697Z,52.5
2019-01-10T23:11:50.213Z,52.4
2019-01-10T23:16:50.752Z,52.3
2019-01-10T23:21:52.277Z,52.2
2019-01-10T23:26:52.833Z,52.1
2019-01-10T23:31:53.348Z,52
2019-01-10T23:36:53.833Z,51.9
2019-01-10T23:41:54.338Z,51.8
2019-01-10T23:46:54.864Z,51.7
2019-01-10T23:51:55.341Z,51.7
2019-01-10T23:56:55.896Z,51.6
